Time;durP1;ratioP1;P1;durP2;ratioP2;P2;SDS_P1;SDS_P2;PMS_P1;PMS_P2;Temp;Humidity;BMP_temperature;BMP_pressure;BME280_temperature;BME280_humidity;BME280_pressure;Samples;Min_cycle;Max_cycle;Signal;HPM_P1;HPM_P2
2023/05/04 00:00:06;;;;;;;;;;;;;;;15.57;73.07;100891.72;5349512;32;34425;-86
2023/05/04 00:03:08;;;;;;;;;;;;;;;15.74;73.60;100890.03;5343239;32;34753;-86
2023/05/04 00:06:11;;;;;;;;;;;;;;;15.79;72.40;100894.16;5341026;32;34214;-85
2023/05/04 00:09:16;;;;;;;;;;;;;;;16.24;69.85;100893.47;5322466;32;35576;-86
2023/05/04 00:12:18;;;;;;;;;;;;;;;16.45;67.87;100883.47;5334167;32;44676;-85
2023/05/04 00:15:20;;;;;;;;;;;;;;;15.91;70.93;100884.69;5341990;32;35836;-86
2023/05/04 00:18:22;;;;;;;;;;;;;;;15.76;72.15;100882.84;5319288;32;34869;-86
2023/05/04 00:21:24;;;;;;;;;;;;;;;15.51;72.29;100884.06;5326275;32;35545;-86
2023/05/04 00:24:27;;;;;;;;;;;;;;;15.46;72.49;100872.88;5322341;32;34416;-87
2023/05/04 00:27:29;;;;;;;;;;;;;;;15.46;73.16;100875.53;5334568;32;34833;-87
2023/05/04 00:30:31;;;;;;;;;;;;;;;14.84;76.97;100879.53;5331019;32;35560;-87
2023/05/04 00:33:33;;;;;;;;;;;;;;;15.41;73.29;100877.56;5331983;32;34986;-87
2023/05/04 00:36:35;;;;;;;;;;;;;;;15.07;75.55;100881.91;5333945;32;35051;-87
2023/05/04 00:39:37;;;;;;;;;;;;;;;15.70;73.19;100876.06;5339161;32;35017;-86
2023/05/04 00:42:39;;;;;;;;;;;;;;;15.76;72.70;100878.38;5342542;32;35481;-87
2023/05/04 00:45:41;;;;;;;;;;;;;;;15.74;71.35;100874.13;5334250;32;35048;-87
2023/05/04 00:48:44;;;;;;;;;;;;;;;14.84;76.43;100893.63;5340297;32;35841;-86
2023/05/04 00:51:46;;;;;;;;;;;;;;;15.21;75.41;100875.06;5330659;32;34006;-87
2023/05/04 00:54:48;;;;;;;;;;;;;;;15.54;73.77;100878.63;5318351;32;44686;-86
2023/05/04 00:57:50;;;;;;;;;;;;;;;15.53;73.07;100881.37;5329723;32;37017;-86
2023/05/04 01:00:52;;;;;;;;;;;;;;;15.69;70.94;100877.84;5331272;32;35371;-86
2023/05/04 01:03:55;;;;;;;;;;;;;;;15.17;73.85;100879.66;5344861;32;34406;-86
2023/05/04 01:07:06;;;;;;;;;;;;;;;15.49;73.62;100885.97;5322146;32;34914;-86
2023/05/04 01:10:10;;;;;;;;;;;;;;;15.18;74.28;100879.56;5333917;32;34106;-85
2023/05/04 01:13:13;;;;;;;;;;;;;;;15.09;75.25;100887.13;5329750;32;35825;-86
2023/05/04 01:16:15;;;;;;;;;;;;;;;15.01;75.20;100879.56;5316705;32;35815;-85
2023/05/04 01:19:17;;;;;;;;;;;;;;;15.15;74.66;100885.03;5327305;32;44941;-86
2023/05/04 01:22:22;;;;;;;;;;;;;;;15.14;74.76;100888.63;5317096;32;35679;-86
2023/05/04 01:25:26;;;;;;;;;;;;;;;14.74;76.40;100880.91;5311036;32;36963;-86
2023/05/04 01:28:32;;;;;;;;;;;;;;;15.06;76.21;100887.25;5320376;32;34782;-85
2023/05/04 01:31:34;;;;;;;;;;;;;;;15.84;71.26;100877.97;5319974;32;34470;-86
2023/05/04 01:34:36;;;;;;;;;;;;;;;15.76;70.21;100870.44;5321924;32;35714;-87
2023/05/04 01:37:38;;;;;;;;;;;;;;;15.47;72.56;100882.53;5316752;32;35664;-86
2023/05/04 01:40:40;;;;;;;;;;;;;;;15.28;74.47;100873.81;5339175;32;35545;-86
2023/05/04 01:43:42;;;;;;;;;;;;;;;15.05;74.45;100873.19;5339074;32;34162;-86
2023/05/04 01:46:44;;;;;;;;;;;;;;;14.67;77.15;100884.78;5338866;32;34502;-86
2023/05/04 01:49:46;;;;;;;;;;;;;;;14.75;77.00;100874.69;5334983;32;34905;-87
2023/05/04 01:52:49;;;;;;;;;;;;;;;14.95;76.24;100884.31;5313855;32;35408;-86
2023/05/04 01:55:51;;;;;;;;;;;;;;;15.24;74.82;100873.09;5350541;32;35447;-86
2023/05/04 01:58:53;;;;;;;;;;;;;;;15.49;73.92;100869.22;5346782;32;34637;-86
2023/05/04 02:01:55;;;;;;;;;;;;;;;15.08;75.54;100865.09;5325668;32;34626;-86
2023/05/04 02:04:58;;;;;;;;;;;;;;;15.72;73.21;100863.59;5321227;32;34796;-87
2023/05/04 02:08:00;;;;;;;;;;;;;;;14.94;75.81;100854.34;5326138;32;34388;-86
2023/05/04 02:11:02;;;;;;;;;;;;;;;14.73;77.03;100853.59;5337381;32;35847;-86
2023/05/04 02:14:04;;;;;;;;;;;;;;;14.97;76.07;100850.69;5355483;32;36510;-86
2023/05/04 02:17:07;;;;;;;;;;;;;;;16.06;70.57;100852.03;5347148;32;35434;-86
2023/05/04 02:20:09;;;;;;;;;;;;;;;16.60;67.14;100857.87;5332600;32;34525;-87
2023/05/04 02:23:11;;;;;;;;;;;;;;;16.04;68.58;100856.59;5341317;32;35509;-87
2023/05/04 02:26:13;;;;;;;;;;;;;;;15.61;70.95;100858.84;5314681;32;34524;-86
2023/05/04 02:29:15;;;;;;;;;;;;;;;15.74;70.41;100861.72;5334949;32;34501;-86
2023/05/04 02:32:17;;;;;;;;;;;;;;;15.27;70.24;100866.81;5331916;32;44844;-87
2023/05/04 02:35:19;;;;;;;;;;;;;;;15.70;67.17;100858.38;5335220;32;35611;-87
2023/05/04 02:38:21;;;;;;;;;;;;;;;16.45;63.40;100856.09;5343050;32;35651;-87
2023/05/04 02:41:23;;;;;;;;;;;;;;;15.87;64.25;100856.63;5324357;32;34512;-86
2023/05/04 02:44:25;;;;;;;;;;;;;;;14.86;67.81;100860.00;5349782;32;34507;-87
2023/05/04 02:47:27;;;;;;;;;;;;;;;15.10;66.57;100865.88;5319234;32;34802;-87
2023/05/04 02:50:29;;;;;;;;;;;;;;;15.73;63.83;100865.31;5339226;32;34328;-87
2023/05/04 02:53:31;;;;;;;;;;;;;;;15.64;64.22;100864.00;5336014;32;35084;-87
2023/05/04 02:56:33;;;;;;;;;;;;;;;16.09;62.70;100873.06;5317423;32;35662;-87
2023/05/04 02:59:35;;;;;;;;;;;;;;;15.66;63.52;100870.09;5353884;32;35000;-87
2023/05/04 03:02:37;;;;;;;;;;;;;;;15.59;63.22;100868.66;5353816;32;34736;-87
2023/05/04 03:05:39;;;;;;;;;;;;;;;15.09;64.47;100876.53;5350514;32;35585;-87
2023/05/04 03:08:41;;;;;;;;;;;;;;;15.45;64.05;100872.00;5333387;32;35372;-86
2023/05/04 03:11:43;;;;;;;;;;;;;;;15.82;62.60;100866.59;5333201;32;34724;-86
2023/05/04 03:14:45;;;;;;;;;;;;;;;15.22;63.91;100871.47;5331696;32;34038;-86
2023/05/04 03:17:47;;;;;;;;;;;;;;;15.06;64.42;100887.25;5345425;32;44553;-87
2023/05/04 03:20:49;;;;;;;;;;;;;;;15.08;64.43;100877.47;5328109;32;35239;-87
2023/05/04 03:23:51;;;;;;;;;;;;;;;15.22;63.79;100874.13;5309464;32;35275;-87
2023/05/04 03:26:53;;;;;;;;;;;;;;;14.58;66.35;100883.44;5330519;32;34259;-87
2023/05/04 03:29:55;;;;;;;;;;;;;;;14.50;66.96;100883.81;5315841;32;35132;-88
2023/05/04 03:32:57;;;;;;;;;;;;;;;14.41;66.88;100878.91;5341279;32;34814;-87
2023/05/04 03:42:29;;;;;;;;;;;;;;;14.50;66.27;100873.22;5340225;32;20348;-87
2023/05/04 03:45:32;;;;;;;;;;;;;;;15.12;64.13;100876.38;5336190;32;34845;-90
2023/05/04 03:48:35;;;;;;;;;;;;;;;14.59;65.10;100885.16;5336885;27;34359;-64
2023/05/04 03:51:37;;;;;;;;;;;;;;;15.29;62.37;100884.31;5598792;27;34540;-92
2023/05/04 03:54:39;;;;;;;;;;;;;;;14.93;63.71;100892.31;5335873;32;34624;-92
2023/05/04 03:57:41;;;;;;;;;;;;;;;15.12;62.58;100887.81;5348608;32;34326;-94
2023/05/04 04:00:44;;;;;;;;;;;;;;;15.69;60.67;100890.25;5356832;32;34668;-95
2023/05/04 04:03:47;;;;;;;;;;;;;;;15.73;60.52;100889.16;5360057;32;34234;-94
2023/05/04 04:06:50;;;;;;;;;;;;;;;15.37;60.88;100895.38;5361750;32;43329;-93
2023/05/04 04:09:52;;;;;;;;;;;;;;;15.24;62.13;100898.72;5366078;32;35027;-93
2023/05/04 04:12:54;;;;;;;;;;;;;;;15.11;62.72;100901.13;5356394;32;35099;-93
2023/05/04 04:15:56;;;;;;;;;;;;;;;15.17;63.36;100900.84;5353097;32;34255;-94
2023/05/04 04:19:00;;;;;;;;;;;;;;;15.34;62.64;100895.56;5332133;32;36187;-94
2023/05/04 04:22:03;;;;;;;;;;;;;;;15.45;62.94;100898.50;5342074;32;35641;-95
2023/05/04 04:25:06;;;;;;;;;;;;;;;15.89;61.99;100902.44;5332602;32;34432;-94
2023/05/04 04:28:09;;;;;;;;;;;;;;;15.91;63.28;100911.19;5336030;32;34148;-94
2023/05/04 04:31:13;;;;;;;;;;;;;;;14.75;68.14;100919.66;5348117;32;34716;-93
2023/05/04 04:34:15;;;;;;;;;;;;;;;14.76;69.32;100916.09;5358919;32;35335;-94
2023/05/04 04:37:17;;;;;;;;;;;;;;;14.57;70.93;100910.84;5379967;32;34531;-93
2023/05/04 04:40:21;;;;;;;;;;;;;;;15.16;68.21;100912.34;5371160;32;44530;-94
2023/05/04 04:43:24;;;;;;;;;;;;;;;15.26;68.25;100904.78;5360873;32;35908;-94
2023/05/04 04:46:26;;;;;;;;;;;;;;;15.71;65.12;100914.87;5340717;32;35214;-93
2023/05/04 04:49:29;;;;;;;;;;;;;;;15.83;63.61;100916.03;5329248;32;34267;-94
2023/05/04 04:52:32;;;;;;;;;;;;;;;15.83;61.94;100911.56;5336435;32;35918;-95
2023/05/04 04:55:34;;;;;;;;;;;;;;;16.38;61.44;100915.72;5331479;32;34388;-94
2023/05/04 04:58:37;;;;;;;;;;;;;;;16.65;59.91;100916.84;5344138;32;34957;-94
2023/05/04 05:01:40;;;;;;;;;;;;;;;16.98;57.76;100913.25;5348665;32;34334;-94
2023/05/04 05:04:43;;;;;;;;;;;;;;;17.43;54.98;100914.19;5351790;32;34251;-94
2023/05/04 05:07:46;;;;;;;;;;;;;;;18.28;53.24;100918.75;5369977;32;35100;-94
2023/05/04 05:10:48;;;;;;;;;;;;;;;16.72;56.15;100928.00;5362852;32;44566;-96
2023/05/04 05:13:52;;;;;;;;;;;;;;;18.06;52.45;100912.13;5348877;32;34825;-93
2023/05/04 05:16:55;;;;;;;;;;;;;;;18.87;49.51;100907.00;5342379;32;34114;-94
2023/05/04 05:20:04;;;;;;;;;;;;;;;18.67;49.42;100916.25;5356665;32;34817;-93
2023/05/04 05:23:07;;;;;;;;;;;;;;;17.29;52.06;100917.66;5337040;32;34211;-94
2023/05/04 05:26:11;;;;;;;;;;;;;;;18.19;50.52;100917.53;5347638;32;35259;-93
2023/05/04 05:29:15;;;;;;;;;;;;;;;18.12;49.47;100916.22;5376123;32;34255;-95
2023/05/04 05:32:17;;;;;;;;;;;;;;;19.05;47.63;100923.56;5328538;32;35341;-95
2023/05/04 05:35:21;;;;;;;;;;;;;;;19.72;46.46;100916.38;5358275;32;44524;-96
2023/05/04 05:38:25;;;;;;;;;;;;;;;19.89;45.21;100915.19;5318530;32;1027325;-96
2023/05/04 05:41:28;;;;;;;;;;;;;;;19.66;44.38;100915.97;5368064;32;33163;-94
2023/05/04 05:44:31;;;;;;;;;;;;;;;20.84;42.45;100919.13;5342819;32;37072;-95
2023/05/04 05:47:37;;;;;;;;;;;;;;;20.70;42.62;100916.59;5351217;32;33090;-95
2023/05/04 05:51:11;;;;;;;;;;;;;;;;;;;;;
2023/05/04 05:54:28;;;;;;;;;;;;;;;21.63;39.81;100921.16;5381157;32;36426;-96
2023/05/04 05:57:35;;;;;;;;;;;;;;;21.10;39.50;100923.38;5393938;32;34385;-96
2023/05/04 06:00:40;;;;;;;;;;;;;;;21.21;38.96;100924.41;5368228;32;35105;-95
2023/05/04 06:03:44;;;;;;;;;;;;;;;22.19;37.00;100922.25;5365209;32;35412;-96
2023/05/04 06:06:58;;;;;;;;;;;;;;;21.03;39.42;100927.47;5315673;32;20046;-74
2023/05/04 06:10:00;;;;;;;;;;;;;;;19.40;41.78;100926.53;5284338;32;34987;-62
2023/05/04 06:13:02;;;;;;;;;;;;;;;21.14;38.46;100925.84;5293892;32;35405;-64
2023/05/04 06:16:04;;;;;;;;;;;;;;;21.73;37.73;100920.47;5300019;32;34174;-64
2023/05/04 06:19:06;;;;;;;;;;;;;;;22.51;36.00;100919.66;5306319;32;34848;-62
2023/05/04 06:22:11;;;;;;;;;;;;;;;21.77;36.87;100924.63;5311831;32;33753;-61
2023/05/04 06:25:13;;;;;;;;;;;;;;;22.26;35.73;100926.13;5305486;32;35431;-73
2023/05/04 06:28:15;;;;;;;;;;;;;;;20.98;38.64;100940.31;5322045;32;34098;-64
2023/05/04 06:31:17;;;;;;;;;;;;;;;21.62;37.13;100931.97;5294687;32;35728;-70
2023/05/04 06:34:20;;;;;;;;;;;;;;;21.43;38.21;100943.22;5292060;32;44080;-75
2023/05/04 06:37:22;;;;;;;;;;;;;;;21.33;38.16;100942.22;5315901;32;34356;-69
2023/05/04 06:40:25;;;;;;;;;;;;;;;22.47;36.53;100936.94;5315084;32;35577;-72
2023/05/04 06:43:27;;;;;;;;;;;;;;;22.90;35.62;100927.16;5311007;32;34986;-70
2023/05/04 06:46:29;;;;;;;;;;;;;;;21.61;37.17;100941.81;5313808;32;34851;-73
2023/05/04 06:49:31;;;;;;;;;;;;;;;23.57;34.52;100926.06;5320484;32;35731;-71
2023/05/04 06:52:34;;;;;;;;;;;;;;;22.06;36.21;100936.56;5312842;32;34386;-71
2023/05/04 06:55:36;;;;;;;;;;;;;;;21.93;36.90;100943.84;5312707;32;34936;-71
2023/05/04 06:58:38;;;;;;;;;;;;;;;21.26;38.77;100949.81;5313179;32;33702;-71
2023/05/04 07:01:40;;;;;;;;;;;;;;;21.20;38.62;100952.97;5296891;32;34761;-71
2023/05/04 07:04:42;;;;;;;;;;;;;;;21.86;37.97;100942.63;5320212;32;35682;-71
2023/05/04 07:07:44;;;;;;;;;;;;;;;19.75;41.89;100952.66;5308946;32;34360;-72
2023/05/04 07:10:46;;;;;;;;;;;;;;;19.97;41.80;100949.37;5306143;32;35037;-72
2023/05/04 07:13:48;;;;;;;;;;;;;;;20.55;40.77;100945.28;5314988;32;44703;-71
2023/05/04 07:16:50;;;;;;;;;;;;;;;21.37;39.14;100927.66;5300911;32;35706;-71
2023/05/04 07:19:52;;;;;;;;;;;;;;;23.07;35.51;100927.63;5308357;32;35290;-72
2023/05/04 07:22:57;;;;;;;;;;;;;;;22.77;36.01;100931.78;5309759;32;35533;-73
2023/05/04 07:25:59;;;;;;;;;;;;;;;23.28;35.01;100923.12;5323605;32;34369;-70
2023/05/04 07:29:01;;;;;;;;;;;;;;;23.09;35.32;100931.84;5315981;32;34410;-70
2023/05/04 07:32:03;;;;;;;;;;;;;;;22.56;36.68;100930.88;5300407;32;34362;-71
2023/05/04 07:35:06;;;;;;;;;;;;;;;25.21;32.63;100941.16;5316107;32;35797;-64
2023/05/04 07:38:07;;;;;;;;;;;;;;;25.81;30.91;100931.91;5315950;32;34406;-75
2023/05/04 07:41:09;;;;;;;;;;;;;;;23.73;33.66;100939.88;5318262;32;34280;-64
2023/05/04 07:44:11;;;;;;;;;;;;;;;25.14;31.01;100935.50;5318883;32;34462;-65
2023/05/04 07:47:13;;;;;;;;;;;;;;;24.26;33.09;100923.62;5323232;32;33689;-72
2023/05/04 07:50:15;;;;;;;;;;;;;;;24.47;32.96;100928.09;5313547;32;35788;-67
2023/05/04 07:53:19;;;;;;;;;;;;;;;25.19;31.19;100932.37;5339889;32;35134;-67
2023/05/04 07:56:21;;;;;;;;;;;;;;;26.51;29.18;100928.84;5336381;32;44500;-65
2023/05/04 07:59:23;;;;;;;;;;;;;;;24.14;32.84;100932.75;5338967;32;33520;-73
2023/05/04 08:02:25;;;;;;;;;;;;;;;24.94;31.89;100926.53;5317944;32;34958;-67
2023/05/04 08:05:27;;;;;;;;;;;;;;;24.98;31.73;100932.47;5333605;32;35033;-75
2023/05/04 08:08:29;;;;;;;;;;;;;;;25.16;31.60;100930.81;5341764;32;35418;-75
2023/05/04 08:11:33;;;;;;;;;;;;;;;25.78;30.37;100926.84;5338009;32;35138;-71
2023/05/04 08:14:37;;;;;;;;;;;;;;;25.77;30.74;100935.91;5328695;32;35433;-75
2023/05/04 08:17:39;;;;;;;;;;;;;;;24.93;32.04;100937.44;5334677;32;34211;-74
2023/05/04 08:20:43;;;;;;;;;;;;;;;26.51;29.70;100924.31;5327391;32;34341;-76
2023/05/04 08:23:45;;;;;;;;;;;;;;;26.12;29.49;100935.22;5319633;32;34971;-72
2023/05/04 08:26:48;;;;;;;;;;;;;;;24.23;32.41;100941.84;5318249;32;44476;-67
2023/05/04 08:30:08;;;;;;;;;;;;;;;25.39;30.82;100937.63;5327700;32;35378;-82
2023/05/04 08:33:10;;;;;;;;;;;;;;;25.32;30.82;100943.72;5331161;32;34540;-66
2023/05/04 08:36:12;;;;;;;;;;;;;;;25.86;29.40;100945.78;5340660;32;34273;-83
2023/05/04 08:39:14;;;;;;;;;;;;;;;26.48;28.67;100945.34;5333292;32;34453;-65
2023/05/04 08:42:26;;;;;;;;;;;;;;;25.12;30.71;100945.56;5328725;32;35480;-66
2023/05/04 08:45:28;;;;;;;;;;;;;;;24.57;31.06;100942.44;5340846;32;33781;-73
2023/05/04 08:48:34;;;;;;;;;;;;;;;24.72;30.95;100943.72;5325594;32;36479;-77
2023/05/04 08:51:36;;;;;;;;;;;;;;;25.66;29.86;100942.25;5341812;32;34918;-76
2023/05/04 08:54:38;;;;;;;;;;;;;;;27.16;27.55;100934.97;5316686;32;35137;-75
2023/05/04 08:57:40;;;;;;;;;;;;;;;25.04;31.13;100938.16;5337261;32;35096;-73
2023/05/04 09:00:42;;;;;;;;;;;;;;;24.92;31.06;100941.09;5313875;32;35199;-75
2023/05/04 09:03:45;;;;;;;;;;;;;;;24.80;31.85;100941.22;5321874;32;34906;-70
2023/05/04 09:06:47;;;;;;;;;;;;;;;25.33;31.20;100945.41;5332296;32;34814;-64
2023/05/04 09:09:50;;;;;;;;;;;;;;;26.73;29.25;100932.00;5332973;32;44757;-64
2023/05/04 09:12:53;;;;;;;;;;;;;;;27.69;27.57;100932.25;5335227;32;34415;-70
2023/05/04 09:15:58;;;;;;;;;;;;;;;27.55;27.68;100927.41;5337054;32;34524;-75
2023/05/04 09:19:00;;;;;;;;;;;;;;;26.61;29.31;100930.50;5327266;32;34377;-71
2023/05/04 09:22:12;;;;;;;;;;;;;;;28.47;26.14;100928.69;5322236;32;35727;-76
2023/05/04 09:25:15;;;;;;;;;;;;;;;28.88;25.99;100929.66;5331081;32;33125;-67
2023/05/04 09:28:17;;;;;;;;;;;;;;;29.71;24.11;100912.50;5344734;32;35728;-66
2023/05/04 09:31:19;;;;;;;;;;;;;;;28.35;26.12;100916.47;5304304;32;45621;-75
2023/05/04 09:34:21;;;;;;;;;;;;;;;29.40;24.90;100914.00;5332027;32;34925;-68
2023/05/04 09:37:23;;;;;;;;;;;;;;;28.01;26.61;100914.56;5330353;32;35515;-69
2023/05/04 09:40:29;;;;;;;;;;;;;;;28.43;26.40;100913.78;5336780;32;34817;-69
2023/05/04 09:43:38;;;;;;;;;;;;;;;27.10;27.26;100917.56;5341534;32;34974;-70
2023/05/04 09:46:40;;;;;;;;;;;;;;;27.63;27.42;100910.41;5317534;32;34800;-73
2023/05/04 09:49:42;;;;;;;;;;;;;;;27.14;28.09;100915.41;5341084;32;35363;-66
2023/05/04 09:52:45;;;;;;;;;;;;;;;27.38;27.77;100912.94;5322903;32;35062;-73
2023/05/04 09:55:47;;;;;;;;;;;;;;;27.44;27.59;100912.31;5328912;32;35556;-67
2023/05/04 09:58:49;;;;;;;;;;;;;;;26.82;28.37;100910.50;5322088;32;44847;-66
2023/05/04 10:01:51;;;;;;;;;;;;;;;26.50;28.68;100901.06;5333288;32;35119;-66
2023/05/04 10:04:53;;;;;;;;;;;;;;;27.08;26.88;100891.75;5327328;32;34222;-67
2023/05/04 10:07:57;;;;;;;;;;;;;;;26.53;27.63;100892.66;5321214;32;34740;-71
2023/05/04 10:11:00;;;;;;;;;;;;;;;26.82;27.74;100897.87;5327851;32;35160;-65
2023/05/04 10:14:02;;;;;;;;;;;;;;;26.35;28.03;100887.22;5331183;32;34948;-65
2023/05/04 10:17:13;;;;;;;;;;;;;;;29.01;24.11;100881.34;5345476;32;34298;-67
2023/05/04 10:20:24;;;;;;;;;;;;;;;27.00;26.42;100887.09;5330935;32;36084;-69
2023/05/04 10:23:45;;;;;;;;;;;;;;;26.34;27.93;100888.22;5334349;32;44845;-69
2023/05/04 10:26:58;;;;;;;;;;;;;;;27.68;25.94;100876.56;5341847;32;36345;-69
2023/05/04 10:30:00;;;;;;;;;;;;;;;30.17;22.58;100867.50;5322712;32;34396;-73
2023/05/04 10:33:02;;;;;;;;;;;;;;;29.65;23.47;100866.09;5331708;32;36091;-66
2023/05/04 10:36:04;;;;;;;;;;;;;;;28.86;24.24;100870.31;5330090;32;35615;-78
2023/05/04 10:39:23;;;;;;;;;;;;;;;27.41;26.07;100865.88;5326722;32;34489;-77
2023/05/04 10:42:25;;;;;;;;;;;;;;;27.56;25.98;100874.25;5339092;32;44146;-64
2023/05/04 10:45:33;;;;;;;;;;;;;;;26.04;28.35;100864.25;5327597;32;35345;-65
2023/05/04 10:48:35;;;;;;;;;;;;;;;28.67;24.56;100858.97;5338309;32;34356;-74
2023/05/04 10:51:37;;;;;;;;;;;;;;;26.99;27.16;100866.53;5333196;32;33938;-64
2023/05/04 10:54:57;;;;;;;;;;;;;;;31.13;21.80;100850.81;5332161;32;44526;-64
2023/05/04 10:57:58;;;;;;;;;;;;;;;30.54;22.30;100842.41;5338088;32;34821;-73
2023/05/04 11:01:10;;;;;;;;;;;;;;;28.48;25.16;100847.41;5330566;32;35905;-66
2023/05/04 11:04:21;;;;;;;;;;;;;;;27.34;26.38;100838.69;5324508;32;34341;-64
2023/05/04 11:07:31;;;;;;;;;;;;;;;27.43;26.39;100836.87;5328834;32;46540;-65
2023/05/04 11:10:33;;;;;;;;;;;;;;;28.35;24.95;100836.22;5308621;32;35819;-68
2023/05/04 11:13:40;;;;;;;;;;;;;;;30.51;22.49;100820.22;5310599;32;34885;-69
2023/05/04 11:16:42;;;;;;;;;;;;;;;27.92;25.51;100824.53;5311308;32;35434;-75
2023/05/04 11:19:48;;;;;;;;;;;;;;;32.11;20.57;100805.50;5334722;32;34289;-72
2023/05/04 11:22:51;;;;;;;;;;;;;;;32.46;20.14;100806.56;5317477;32;44267;-71
2023/05/04 11:25:53;;;;;;;;;;;;;;;30.60;22.76;100803.72;5339888;32;36075;-71
2023/05/04 11:28:55;;;;;;;;;;;;;;;31.15;21.54;100802.59;5331772;32;34333;-69
2023/05/04 11:31:57;;;;;;;;;;;;;;;31.86;21.11;100799.53;5297342;32;34319;-69
2023/05/04 11:35:00;;;;;;;;;;;;;;;29.94;22.85;100794.22;5331533;32;34270;-70
2023/05/04 11:38:02;;;;;;;;;;;;;;;31.16;21.80;100789.87;5319985;32;34192;-75
2023/05/04 11:41:04;;;;;;;;;;;;;;;29.22;24.01;100790.66;5335429;32;34912;-71
2023/05/04 11:44:07;;;;;;;;;;;;;;;25.65;29.19;100803.28;5334134;32;36318;-71
2023/05/04 11:47:09;;;;;;;;;;;;;;;27.20;26.52;100791.53;5338551;32;34186;-72
2023/05/04 11:50:11;;;;;;;;;;;;;;;26.55;27.62;100792.78;5324755;32;34895;-74
2023/05/04 11:53:13;;;;;;;;;;;;;;;25.16;29.56;100790.94;5328498;32;34560;-72
2023/05/04 11:56:15;;;;;;;;;;;;;;;25.98;29.13;100800.22;5337116;32;37107;-74
2023/05/04 11:59:17;;;;;;;;;;;;;;;24.50;31.20;100798.88;5328438;32;34309;-79
2023/05/04 12:02:19;;;;;;;;;;;;;;;26.65;28.07;100789.00;5342620;32;46303;-69
2023/05/04 12:05:22;;;;;;;;;;;;;;;26.34;29.42;100793.03;5313143;32;34330;-67
2023/05/04 12:08:25;;;;;;;;;;;;;;;26.28;28.68;100786.44;5336877;32;34285;-74
2023/05/04 12:11:27;;;;;;;;;;;;;;;26.46;28.60;100787.31;5324355;32;34464;-81
2023/05/04 12:14:29;;;;;;;;;;;;;;;26.76;28.54;100779.00;5314839;32;35945;-67
2023/05/04 12:17:41;;;;;;;;;;;;;;;26.86;28.11;100783.31;5341940;32;35114;-70
2023/05/04 12:20:43;;;;;;;;;;;;;;;25.38;31.21;100784.41;5331756;32;34307;-72
2023/05/04 12:23:45;;;;;;;;;;;;;;;26.10;30.20;100783.69;5338639;32;35946;-72
2023/05/04 12:26:47;;;;;;;;;;;;;;;27.16;27.70;100771.25;5330572;32;34480;-73
2023/05/04 12:29:50;;;;;;;;;;;;;;;24.75;31.42;100771.44;5327316;32;44673;-74
2023/05/04 12:32:52;;;;;;;;;;;;;;;24.20;32.13;100771.06;5326524;32;38154;-68
2023/05/04 12:35:54;;;;;;;;;;;;;;;24.38;31.80;100775.81;5330190;32;35784;-71
2023/05/04 12:38:56;;;;;;;;;;;;;;;24.62;31.51;100764.66;5339749;32;34385;-64
2023/05/04 12:41:58;;;;;;;;;;;;;;;24.21;32.25;100771.91;5328048;32;34883;-74
2023/05/04 12:45:01;;;;;;;;;;;;;;;24.35;32.39;100766.22;5338338;32;34321;-79
2023/05/04 12:48:03;;;;;;;;;;;;;;;23.74;33.87;100772.50;5332414;32;35804;-72
2023/05/04 12:51:05;;;;;;;;;;;;;;;24.71;32.19;100761.97;5340807;32;34757;-64
2023/05/04 12:54:07;;;;;;;;;;;;;;;25.19;30.84;100760.25;5331672;32;36089;-74
2023/05/04 12:57:11;;;;;;;;;;;;;;;25.55;30.28;100756.72;5335489;32;34999;-74
2023/05/04 13:00:15;;;;;;;;;;;;;;;24.18;32.34;100762.31;5340910;32;36223;-73
2023/05/04 13:03:18;;;;;;;;;;;;;;;25.03;31.37;100752.72;5323120;32;44488;-63
2023/05/04 13:06:23;;;;;;;;;;;;;;;24.52;32.48;100756.59;5336711;32;35559;-76
2023/05/04 13:09:25;;;;;;;;;;;;;;;25.98;30.85;100747.19;5321923;32;34548;-78
2023/05/04 13:12:27;;;;;;;;;;;;;;;24.36;33.10;100757.16;5331331;32;34343;-65
2023/05/04 13:15:30;;;;;;;;;;;;;;;24.09;33.75;100747.06;5328124;32;34390;-81
2023/05/04 13:18:32;;;;;;;;;;;;;;;24.28;33.45;100741.72;5327439;32;36440;-73
2023/05/04 13:21:34;;;;;;;;;;;;;;;23.83;36.02;100745.81;5338895;32;34387;-67
2023/05/04 13:24:36;;;;;;;;;;;;;;;24.47;35.05;100732.84;5330754;32;33094;-71
2023/05/04 13:27:38;;;;;;;;;;;;;;;25.38;34.10;100738.66;5332867;32;34124;-64
2023/05/04 13:30:40;;;;;;;;;;;;;;;24.03;36.90;100737.72;5313061;32;36072;-61
2023/05/04 13:33:44;;;;;;;;;;;;;;;24.56;35.77;100725.78;5308928;32;34705;-71
2023/05/04 13:36:46;;;;;;;;;;;;;;;24.04;37.18;100728.66;5335153;32;35822;-71
2023/05/04 13:39:48;;;;;;;;;;;;;;;24.47;36.76;100714.03;5324604;32;45233;-69
2023/05/04 13:42:50;;;;;;;;;;;;;;;25.03;35.68;100712.41;5329484;32;35049;-69
2023/05/04 13:45:55;;;;;;;;;;;;;;;25.21;35.07;100707.16;5320099;32;36194;-71
2023/05/04 13:48:57;;;;;;;;;;;;;;;24.07;37.14;100711.41;5339149;32;34382;-72
2023/05/04 13:51:59;;;;;;;;;;;;;;;25.15;35.03;100695.13;5316099;32;35124;-65
2023/05/04 13:55:01;;;;;;;;;;;;;;;24.82;35.36;100697.31;5313899;32;34287;-70
2023/05/04 13:58:03;;;;;;;;;;;;;;;25.59;34.04;100703.44;5335405;32;34928;-69
2023/05/04 14:01:05;;;;;;;;;;;;;;;25.65;34.01;100692.09;5312998;32;33371;-70
2023/05/04 14:04:08;;;;;;;;;;;;;;;24.67;34.98;100711.34;5323829;32;35127;-72
2023/05/04 14:07:10;;;;;;;;;;;;;;;23.72;36.04;100715.44;5316718;32;34360;-79
2023/05/04 14:10:12;;;;;;;;;;;;;;;23.20;37.38;100703.06;5320261;32;35228;-73
2023/05/04 14:13:14;;;;;;;;;;;;;;;23.48;36.76;100705.00;5326520;32;34706;-71
2023/05/04 14:16:16;;;;;;;;;;;;;;;24.10;35.46;100702.25;5327686;32;35720;-71
2023/05/04 14:19:18;;;;;;;;;;;;;;;24.25;35.39;100699.00;5329932;32;43708;-72
2023/05/04 14:22:20;;;;;;;;;;;;;;;23.83;36.96;100708.25;5309280;32;34536;-77
2023/05/04 14:25:23;;;;;;;;;;;;;;;24.01;37.30;100703.91;5323270;32;34418;-71
2023/05/04 14:28:25;;;;;;;;;;;;;;;24.06;37.69;100709.72;5325516;32;35100;-68
2023/05/04 14:31:27;;;;;;;;;;;;;;;24.27;37.23;100701.53;5303728;32;37781;-76
2023/05/04 14:34:29;;;;;;;;;;;;;;;23.72;38.09;100711.91;5325604;32;35757;-75
2023/05/04 14:37:31;;;;;;;;;;;;;;;24.12;37.49;100703.78;5328226;32;34960;-77
2023/05/04 14:40:33;;;;;;;;;;;;;;;24.22;37.45;100690.41;5336006;32;34796;-75
2023/05/04 14:43:35;;;;;;;;;;;;;;;25.11;35.76;100691.03;5327603;32;35029;-76
2023/05/04 14:46:37;;;;;;;;;;;;;;;24.04;37.34;100698.28;5325734;32;34842;-72
2023/05/04 14:49:41;;;;;;;;;;;;;;;24.75;36.57;100695.34;5324381;32;34697;-76
2023/05/04 14:52:43;;;;;;;;;;;;;;;24.18;37.06;100687.13;5333519;32;35016;-71
2023/05/04 14:55:46;;;;;;;;;;;;;;;23.47;38.23;100681.84;5330330;32;35508;-77
2023/05/04 14:58:48;;;;;;;;;;;;;;;23.92;37.37;100688.66;5326765;32;44863;-70
2023/05/04 15:01:51;;;;;;;;;;;;;;;24.11;37.10;100686.00;5318890;32;35304;-70
2023/05/04 15:04:53;;;;;;;;;;;;;;;23.65;38.50;100687.47;5321655;32;36857;-72
2023/05/04 15:07:55;;;;;;;;;;;;;;;24.39;36.71;100688.84;5332563;32;35259;-70
2023/05/04 15:10:57;;;;;;;;;;;;;;;24.24;36.87;100689.25;5311859;32;35303;-70
2023/05/04 15:14:00;;;;;;;;;;;;;;;23.10;39.09;100692.28;5320685;32;35665;-77
2023/05/04 15:17:02;;;;;;;;;;;;;;;23.82;37.78;100690.44;5315581;32;35535;-75
2023/05/04 15:20:05;;;;;;;;;;;;;;;24.18;37.46;100686.28;5327994;32;35771;-76
2023/05/04 15:23:10;;;;;;;;;;;;;;;24.87;35.96;100682.59;5333737;32;35155;-70
2023/05/04 15:26:12;;;;;;;;;;;;;;;23.85;37.08;100690.19;5314197;32;35157;-76
2023/05/04 15:29:14;;;;;;;;;;;;;;;23.68;37.87;100689.00;5324771;32;34804;-70
2023/05/04 15:32:16;;;;;;;;;;;;;;;23.76;37.98;100684.69;5310716;32;35819;-71
2023/05/04 15:35:18;;;;;;;;;;;;;;;23.36;38.98;100676.59;5333549;32;45208;-70
2023/05/04 15:38:20;;;;;;;;;;;;;;;24.15;37.85;100674.00;5316589;32;35317;-75
2023/05/04 15:41:22;;;;;;;;;;;;;;;24.41;37.15;100681.50;5331400;32;34502;-76
2023/05/04 15:44:26;;;;;;;;;;;;;;;24.22;37.12;100677.81;5335497;32;34884;-71
2023/05/04 15:47:29;;;;;;;;;;;;;;;24.26;37.20;100679.22;5326351;32;35104;-71